SBOSBO HYD / VOHS
Speedbird OnlineSpeedbird Online HYD / VOHS

Rajiv Gandhi International Airport
13:20 24°C

Location Hyderabad, India
Latitude: 17.2313175201
Longitude: 78.4298553467
Web Airport Website | Wikipedia
Altitude 617 Meter / 2024 Feet
Distance 7,714 KM / 4,793 Miles
from London.
Time Zone UTC +5.5 hours (Asia/Calcutta)
Codes IATA: HYD
ICAO: VOHS
Currency £1 equals INR 92.44
Runways
RunwayLength (m)Surface
09L3707Asphalt
09R4260Asphalt
27L4260Asphalt
27R3707Asphalt
Radio
TypeDescriptionFrequency
APP120.25
APP125.55
ATIS126.47
CONTROL-1120.95
CONTROL-2128.35
CONTROL-3129.7
DELIVERY121.62
GROUND121.62
SMC121.85
TOWER118.45
Live ATC
METAR VOHS 060730Z 08013KT 4000 -RA BKN008 BKN015 FEW030CB OVC080 24/23 Q1008 NOSIG
TAF TAF VOHS 060500Z 0606/0615 060010KT 5000 DZ BR FEW010 SCT015 BKN080 TEMPO 0609/0615 FEW030CB
Weather As Of 06 Oct 2022 13:20
Description Overcast clouds
Wind 24 km/h from East (80°)
Cloud Cover 100%
Precipitation Rain: none, Snow: none
Sunrise 06:07
Sunset 18:01
Lounges Plaza Premium Lounge, International Departures
Rotations During the last 90 days there were
77 flights from LHR
76 flights to LHR


© 2017-2022 Speedbird Online